Terminal Aerodrome Forecast
Issued by NWS Spokane, WA

Home | Current Version | Previous Version | Text Only | Print | Product List | Glossary On
Versions: 1 2 3 4 5 6 7 8 9 10 11 12
000
FTUS46 KOTX 230524
TAFLWS
TAF
KLWS 230524Z 2306/2406 24006KT P6SM FEW250
     FM232100 33005KT P6SM FEW070 FEW250=

USA.gov is the U.S. government's official web portal to all federal, state and local government web resources and services.